sensor_id;sensor_type;location;lat;lon;timestamp;temperature;humidity
27619;DHT22;15039;50.830;4.730;2023-03-03T00:02:15;2.20;99.90
27619;DHT22;15039;50.830;4.730;2023-03-03T00:04:41;2.20;99.90
27619;DHT22;15039;50.830;4.730;2023-03-03T00:07:07;2.20;99.90
27619;DHT22;15039;50.830;4.730;2023-03-03T00:09:32;2.30;99.90
27619;DHT22;15039;50.830;4.730;2023-03-03T00:11:59;2.30;99.90
27619;DHT22;15039;50.830;4.730;2023-03-03T00:14:30;2.30;99.90
27619;DHT22;15039;50.830;4.730;2023-03-03T00:17:00;2.20;99.90
27619;DHT22;15039;50.830;4.730;2023-03-03T00:19:25;2.40;99.90
27619;DHT22;15039;50.830;4.730;2023-03-03T00:21:52;2.10;99.90
27619;DHT22;15039;50.830;4.730;2023-03-03T00:26:54;1.90;99.90
27619;DHT22;15039;50.830;4.730;2023-03-03T00:29:33;2.00;99.90
27619;DHT22;15039;50.830;4.730;2023-03-03T00:32:30;2.30;99.90
27619;DHT22;15039;50.830;4.730;2023-03-03T00:35:16;2.30;99.90
27619;DHT22;15039;50.830;4.730;2023-03-03T00:37:43;2.00;99.90
27619;DHT22;15039;50.830;4.730;2023-03-03T00:42:58;1.80;99.90
27619;DHT22;15039;50.830;4.730;2023-03-03T00:48:10;1.90;99.90
27619;DHT22;15039;50.830;4.730;2023-03-03T00:50:42;1.80;99.90
27619;DHT22;15039;50.830;4.730;2023-03-03T00:53:13;1.70;99.90
27619;DHT22;15039;50.830;4.730;2023-03-03T00:55:41;1.70;99.90
27619;DHT22;15039;50.830;4.730;2023-03-03T00:58:07;1.50;99.90
27619;DHT22;15039;50.830;4.730;2023-03-03T01:00:33;1.40;99.90
27619;DHT22;15039;50.830;4.730;2023-03-03T01:03:02;1.60;99.90
27619;DHT22;15039;50.830;4.730;2023-03-03T01:05:29;1.70;99.90
27619;DHT22;15039;50.830;4.730;2023-03-03T01:07:54;1.70;99.90
27619;DHT22;15039;50.830;4.730;2023-03-03T01:10:20;1.80;99.90
27619;DHT22;15039;50.830;4.730;2023-03-03T01:12:45;1.80;99.90
27619;DHT22;15039;50.830;4.730;2023-03-03T01:15:13;1.70;99.90
27619;DHT22;15039;50.830;4.730;2023-03-03T01:17:40;1.60;99.90
27619;DHT22;15039;50.830;4.730;2023-03-03T01:20:08;1.50;99.90
27619;DHT22;15039;50.830;4.730;2023-03-03T01:22:35;1.30;99.90
27619;DHT22;15039;50.830;4.730;2023-03-03T01:25:00;1.50;99.90
27619;DHT22;15039;50.830;4.730;2023-03-03T01:27:28;1.30;99.90
27619;DHT22;15039;50.830;4.730;2023-03-03T01:29:55;1.60;99.90
27619;DHT22;15039;50.830;4.730;2023-03-03T01:32:22;1.60;99.90
27619;DHT22;15039;50.830;4.730;2023-03-03T01:34:47;1.50;99.90
27619;DHT22;15039;50.830;4.730;2023-03-03T01:37:13;1.40;99.90
27619;DHT22;15039;50.830;4.730;2023-03-03T01:39:39;1.40;99.90
27619;DHT22;15039;50.830;4.730;2023-03-03T01:42:05;1.40;99.90
27619;DHT22;15039;50.830;4.730;2023-03-03T01:44:30;1.40;99.90
27619;DHT22;15039;50.830;4.730;2023-03-03T01:49:54;1.00;99.90
27619;DHT22;15039;50.830;4.730;2023-03-03T01:52:34;1.10;99.90
27619;DHT22;15039;50.830;4.730;2023-03-03T01:55:12;1.10;99.90
27619;DHT22;15039;50.830;4.730;2023-03-03T01:57:46;1.20;99.90
27619;DHT22;15039;50.830;4.730;2023-03-03T02:00:14;1.30;99.90
27619;DHT22;15039;50.830;4.730;2023-03-03T02:02:41;1.20;99.90
27619;DHT22;15039;50.830;4.730;2023-03-03T02:05:08;1.30;99.90
27619;DHT22;15039;50.830;4.730;2023-03-03T02:07:34;1.00;99.90
27619;DHT22;15039;50.830;4.730;2023-03-03T02:10:08;0.90;99.90
27619;DHT22;15039;50.830;4.730;2023-03-03T02:12:43;0.90;99.90
27619;DHT22;15039;50.830;4.730;2023-03-03T02:17:43;0.70;99.90
27619;DHT22;15039;50.830;4.730;2023-03-03T02:20:20;0.70;99.90
27619;DHT22;15039;50.830;4.730;2023-03-03T02:23:05;0.70;99.90
27619;DHT22;15039;50.830;4.730;2023-03-03T02:28:22;0.70;99.90
27619;DHT22;15039;50.830;4.730;2023-03-03T02:30:48;0.70;99.90
27619;DHT22;15039;50.830;4.730;2023-03-03T02:33:14;0.70;99.90
27619;DHT22;15039;50.830;4.730;2023-03-03T02:35:40;0.90;99.90
27619;DHT22;15039;50.830;4.730;2023-03-03T02:40:43;0.90;99.90
27619;DHT22;15039;50.830;4.730;2023-03-03T02:43:10;0.70;99.90
27619;DHT22;15039;50.830;4.730;2023-03-03T02:45:43;0.80;99.90
27619;DHT22;15039;50.830;4.730;2023-03-03T02:48:10;0.80;99.90
27619;DHT22;15039;50.830;4.730;2023-03-03T02:50:36;0.70;99.90
27619;DHT22;15039;50.830;4.730;2023-03-03T02:53:02;0.70;99.90
27619;DHT22;15039;50.830;4.730;2023-03-03T02:55:27;0.60;99.90
27619;DHT22;15039;50.830;4.730;2023-03-03T02:57:53;0.60;99.90
27619;DHT22;15039;50.830;4.730;2023-03-03T03:00:18;0.90;99.90
27619;DHT22;15039;50.830;4.730;2023-03-03T03:02:45;1.00;99.90
27619;DHT22;15039;50.830;4.730;2023-03-03T03:05:11;1.00;99.90
27619;DHT22;15039;50.830;4.730;2023-03-03T03:07:37;1.10;99.90
27619;DHT22;15039;50.830;4.730;2023-03-03T03:10:03;1.10;99.90
27619;DHT22;15039;50.830;4.730;2023-03-03T03:12:28;1.20;99.90
27619;DHT22;15039;50.830;4.730;2023-03-03T03:14:54;1.20;99.90
27619;DHT22;15039;50.830;4.730;2023-03-03T03:17:20;1.40;99.90
27619;DHT22;15039;50.830;4.730;2023-03-03T03:19:45;1.60;99.90
27619;DHT22;15039;50.830;4.730;2023-03-03T03:22:11;1.50;99.90
27619;DHT22;15039;50.830;4.730;2023-03-03T03:24:37;1.50;99.90
27619;DHT22;15039;50.830;4.730;2023-03-03T03:27:02;1.20;99.90
27619;DHT22;15039;50.830;4.730;2023-03-03T03:29:28;1.40;99.90
27619;DHT22;15039;50.830;4.730;2023-03-03T03:31:53;1.50;99.90
27619;DHT22;15039;50.830;4.730;2023-03-03T03:34:19;1.40;99.90
27619;DHT22;15039;50.830;4.730;2023-03-03T03:36:45;1.40;99.90
27619;DHT22;15039;50.830;4.730;2023-03-03T03:39:11;1.30;99.90
27619;DHT22;15039;50.830;4.730;2023-03-03T03:41:37;1.40;99.90
27619;DHT22;15039;50.830;4.730;2023-03-03T03:44:03;1.50;99.90
27619;DHT22;15039;50.830;4.730;2023-03-03T03:46:28;1.50;99.90
27619;DHT22;15039;50.830;4.730;2023-03-03T03:48:54;1.50;99.90
27619;DHT22;15039;50.830;4.730;2023-03-03T03:51:19;1.60;99.90
27619;DHT22;15039;50.830;4.730;2023-03-03T03:53:45;1.60;99.90
27619;DHT22;15039;50.830;4.730;2023-03-03T03:56:11;1.60;99.90
27619;DHT22;15039;50.830;4.730;2023-03-03T03:58:36;1.70;99.90
27619;DHT22;15039;50.830;4.730;2023-03-03T04:01:06;1.60;99.90
27619;DHT22;15039;50.830;4.730;2023-03-03T04:03:33;1.60;99.90
27619;DHT22;15039;50.830;4.730;2023-03-03T04:05:58;1.70;99.90
27619;DHT22;15039;50.830;4.730;2023-03-03T04:08:24;1.80;99.90
27619;DHT22;15039;50.830;4.730;2023-03-03T04:10:50;1.70;99.90
27619;DHT22;15039;50.830;4.730;2023-03-03T04:13:15;1.60;99.90
27619;DHT22;15039;50.830;4.730;2023-03-03T04:15:41;1.70;99.90
27619;DHT22;15039;50.830;4.730;2023-03-03T04:18:07;1.70;99.90
27619;DHT22;15039;50.830;4.730;2023-03-03T04:20:32;1.60;99.90
27619;DHT22;15039;50.830;4.730;2023-03-03T04:22:58;1.60;99.90
27619;DHT22;15039;50.830;4.730;2023-03-03T04:25:24;1.50;99.90
27619;DHT22;15039;50.830;4.730;2023-03-03T04:27:49;1.50;99.90
27619;DHT22;15039;50.830;4.730;2023-03-03T04:30:17;1.40;99.90
27619;DHT22;15039;50.830;4.730;2023-03-03T04:32:43;1.40;99.90
27619;DHT22;15039;50.830;4.730;2023-03-03T04:35:09;1.20;99.90
27619;DHT22;15039;50.830;4.730;2023-03-03T04:37:36;1.10;99.90
27619;DHT22;15039;50.830;4.730;2023-03-03T04:40:07;1.30;99.90
27619;DHT22;15039;50.830;4.730;2023-03-03T04:42:33;1.30;99.90
27619;DHT22;15039;50.830;4.730;2023-03-03T04:44:59;1.30;99.90
27619;DHT22;15039;50.830;4.730;2023-03-03T04:47:25;1.30;99.90
27619;DHT22;15039;50.830;4.730;2023-03-03T04:49:50;1.20;99.90
27619;DHT22;15039;50.830;4.730;2023-03-03T04:52:16;1.10;99.90
27619;DHT22;15039;50.830;4.730;2023-03-03T04:54:42;1.00;99.90
27619;DHT22;15039;50.830;4.730;2023-03-03T04:57:08;0.90;99.90
27619;DHT22;15039;50.830;4.730;2023-03-03T04:59:34;1.00;99.90
27619;DHT22;15039;50.830;4.730;2023-03-03T05:02:00;1.20;99.90
27619;DHT22;15039;50.830;4.730;2023-03-03T05:04:25;1.20;99.90
27619;DHT22;15039;50.830;4.730;2023-03-03T05:06:52;1.40;99.90
27619;DHT22;15039;50.830;4.730;2023-03-03T05:09:18;1.60;99.90
27619;DHT22;15039;50.830;4.730;2023-03-03T05:11:43;1.60;99.90
27619;DHT22;15039;50.830;4.730;2023-03-03T05:14:09;1.60;99.90
27619;DHT22;15039;50.830;4.730;2023-03-03T05:16:35;1.70;99.90
27619;DHT22;15039;50.830;4.730;2023-03-03T05:19:00;1.70;99.90
27619;DHT22;15039;50.830;4.730;2023-03-03T05:21:26;1.70;99.90
27619;DHT22;15039;50.830;4.730;2023-03-03T05:23:51;1.60;99.90
27619;DHT22;15039;50.830;4.730;2023-03-03T05:26:17;1.60;99.90
27619;DHT22;15039;50.830;4.730;2023-03-03T05:28:43;1.60;99.90
27619;DHT22;15039;50.830;4.730;2023-03-03T05:31:08;1.70;99.90
27619;DHT22;15039;50.830;4.730;2023-03-03T05:33:34;1.60;99.90
27619;DHT22;15039;50.830;4.730;2023-03-03T05:35:59;1.50;99.90
27619;DHT22;15039;50.830;4.730;2023-03-03T05:38:25;1.20;99.90
27619;DHT22;15039;50.830;4.730;2023-03-03T05:40:51;0.90;99.90
27619;DHT22;15039;50.830;4.730;2023-03-03T05:43:17;0.80;99.90
27619;DHT22;15039;50.830;4.730;2023-03-03T05:45:42;0.70;99.90
27619;DHT22;15039;50.830;4.730;2023-03-03T05:48:08;0.60;99.90
27619;DHT22;15039;50.830;4.730;2023-03-03T05:50:36;0.80;99.90
27619;DHT22;15039;50.830;4.730;2023-03-03T05:53:02;0.60;99.90
27619;DHT22;15039;50.830;4.730;2023-03-03T05:55:28;0.50;99.90
27619;DHT22;15039;50.830;4.730;2023-03-03T05:57:54;0.60;99.90
27619;DHT22;15039;50.830;4.730;2023-03-03T06:00:20;0.50;99.90
27619;DHT22;15039;50.830;4.730;2023-03-03T06:02:45;0.40;99.90
27619;DHT22;15039;50.830;4.730;2023-03-03T06:05:11;0.50;99.90
27619;DHT22;15039;50.830;4.730;2023-03-03T06:07:37;0.50;99.90
27619;DHT22;15039;50.830;4.730;2023-03-03T06:10:03;0.60;99.90
27619;DHT22;15039;50.830;4.730;2023-03-03T06:12:29;0.60;99.90
27619;DHT22;15039;50.830;4.730;2023-03-03T06:14:54;0.70;99.90
27619;DHT22;15039;50.830;4.730;2023-03-03T06:17:20;0.70;99.90
27619;DHT22;15039;50.830;4.730;2023-03-03T06:19:46;0.80;99.90
27619;DHT22;15039;50.830;4.730;2023-03-03T06:22:12;0.80;99.90
27619;DHT22;15039;50.830;4.730;2023-03-03T06:24:38;0.80;99.90
27619;DHT22;15039;50.830;4.730;2023-03-03T06:27:04;0.60;99.90
27619;DHT22;15039;50.830;4.730;2023-03-03T06:29:29;0.60;99.90
27619;DHT22;15039;50.830;4.730;2023-03-03T06:31:55;0.50;99.90
27619;DHT22;15039;50.830;4.730;2023-03-03T06:34:20;0.60;99.90
27619;DHT22;15039;50.830;4.730;2023-03-03T06:36:46;0.60;99.90
27619;DHT22;15039;50.830;4.730;2023-03-03T06:39:12;0.50;99.90
27619;DHT22;15039;50.830;4.730;2023-03-03T06:41:38;0.50;99.90
27619;DHT22;15039;50.830;4.730;2023-03-03T06:44:03;0.60;99.90
27619;DHT22;15039;50.830;4.730;2023-03-03T06:46:29;0.60;99.90
27619;DHT22;15039;50.830;4.730;2023-03-03T06:48:55;0.70;99.90
27619;DHT22;15039;50.830;4.730;2023-03-03T06:51:31;0.70;99.90
27619;DHT22;15039;50.830;4.730;2023-03-03T06:54:00;0.80;99.90
27619;DHT22;15039;50.830;4.730;2023-03-03T06:56:27;0.90;99.90
27619;DHT22;15039;50.830;4.730;2023-03-03T06:58:57;0.90;99.90
27619;DHT22;15039;50.830;4.730;2023-03-03T07:01:24;1.00;99.90
27619;DHT22;15039;50.830;4.730;2023-03-03T07:03:51;1.10;99.90
27619;DHT22;15039;50.830;4.730;2023-03-03T07:06:22;1.10;99.90
27619;DHT22;15039;50.830;4.730;2023-03-03T07:08:50;1.10;99.90
27619;DHT22;15039;50.830;4.730;2023-03-03T07:11:18;1.20;99.90
27619;DHT22;15039;50.830;4.730;2023-03-03T07:13:53;1.20;99.90
27619;DHT22;15039;50.830;4.730;2023-03-03T07:16:24;1.20;99.90
27619;DHT22;15039;50.830;4.730;2023-03-03T07:18:53;1.20;99.90
27619;DHT22;15039;50.830;4.730;2023-03-03T07:21:30;1.30;99.90
27619;DHT22;15039;50.830;4.730;2023-03-03T07:23:57;1.30;99.90
27619;DHT22;15039;50.830;4.730;2023-03-03T07:26:30;1.20;99.90
27619;DHT22;15039;50.830;4.730;2023-03-03T07:29:00;1.10;99.90
27619;DHT22;15039;50.830;4.730;2023-03-03T07:31:33;1.20;99.90
27619;DHT22;15039;50.830;4.730;2023-03-03T07:34:00;1.20;99.90
27619;DHT22;15039;50.830;4.730;2023-03-03T07:36:27;1.30;99.90
27619;DHT22;15039;50.830;4.730;2023-03-03T07:39:01;1.30;99.90
27619;DHT22;15039;50.830;4.730;2023-03-03T07:41:30;1.40;99.90
27619;DHT22;15039;50.830;4.730;2023-03-03T07:43:59;1.40;99.90
27619;DHT22;15039;50.830;4.730;2023-03-03T07:46:40;1.50;99.90
27619;DHT22;15039;50.830;4.730;2023-03-03T07:51:44;1.40;99.90
27619;DHT22;15039;50.830;4.730;2023-03-03T07:56:42;1.00;99.90
27619;DHT22;15039;50.830;4.730;2023-03-03T07:59:20;0.90;99.90
27619;DHT22;15039;50.830;4.730;2023-03-03T08:01:46;0.90;99.90
27619;DHT22;15039;50.830;4.730;2023-03-03T08:06:49;1.20;99.90
27619;DHT22;15039;50.830;4.730;2023-03-03T08:12:09;1.50;99.90
27619;DHT22;15039;50.830;4.730;2023-03-03T08:14:37;1.50;99.90
27619;DHT22;15039;50.830;4.730;2023-03-03T08:17:23;1.50;99.90
27619;DHT22;15039;50.830;4.730;2023-03-03T08:19:52;1.30;99.90
27619;DHT22;15039;50.830;4.730;2023-03-03T08:22:33;1.20;99.90
27619;DHT22;15039;50.830;4.730;2023-03-03T08:25:02;1.20;99.90
27619;DHT22;15039;50.830;4.730;2023-03-03T08:27:28;1.10;99.90
27619;DHT22;15039;50.830;4.730;2023-03-03T08:29:54;1.20;99.90
27619;DHT22;15039;50.830;4.730;2023-03-03T08:32:19;1.40;99.90
27619;DHT22;15039;50.830;4.730;2023-03-03T08:34:45;1.50;99.90
27619;DHT22;15039;50.830;4.730;2023-03-03T08:37:14;1.60;99.90
27619;DHT22;15039;50.830;4.730;2023-03-03T08:39:40;1.60;99.90
27619;DHT22;15039;50.830;4.730;2023-03-03T08:42:05;1.60;99.90
27619;DHT22;15039;50.830;4.730;2023-03-03T08:44:31;1.80;99.90
27619;DHT22;15039;50.830;4.730;2023-03-03T08:46:57;1.80;99.90
27619;DHT22;15039;50.830;4.730;2023-03-03T08:49:22;1.90;99.90
27619;DHT22;15039;50.830;4.730;2023-03-03T08:51:48;2.00;99.90
27619;DHT22;15039;50.830;4.730;2023-03-03T08:54:13;2.00;99.90
27619;DHT22;15039;50.830;4.730;2023-03-03T08:56:39;1.90;99.90
27619;DHT22;15039;50.830;4.730;2023-03-03T08:59:05;2.00;99.90
27619;DHT22;15039;50.830;4.730;2023-03-03T09:01:31;1.90;99.90
27619;DHT22;15039;50.830;4.730;2023-03-03T09:03:57;2.10;99.90
27619;DHT22;15039;50.830;4.730;2023-03-03T09:06:23;2.20;99.90
27619;DHT22;15039;50.830;4.730;2023-03-03T09:08:49;2.20;99.90
27619;DHT22;15039;50.830;4.730;2023-03-03T09:11:23;2.10;99.90
27619;DHT22;15039;50.830;4.730;2023-03-03T09:13:49;2.20;99.90
27619;DHT22;15039;50.830;4.730;2023-03-03T09:16:17;2.10;99.90
27619;DHT22;15039;50.830;4.730;2023-03-03T09:18:45;2.00;99.90
27619;DHT22;15039;50.830;4.730;2023-03-03T09:21:25;1.70;99.90
27619;DHT22;15039;50.830;4.730;2023-03-03T09:23:55;1.60;99.90
27619;DHT22;15039;50.830;4.730;2023-03-03T09:26:27;1.80;99.90
27619;DHT22;15039;50.830;4.730;2023-03-03T09:32:01;2.10;99.90
27619;DHT22;15039;50.830;4.730;2023-03-03T09:34:41;1.90;99.90
27619;DHT22;15039;50.830;4.730;2023-03-03T09:39:56;1.70;99.90
27619;DHT22;15039;50.830;4.730;2023-03-03T09:56:18;2.20;99.90
27619;DHT22;15039;50.830;4.730;2023-03-03T10:00:14;2.30;99.90
27619;DHT22;15039;50.830;4.730;2023-03-03T10:02:29;2.30;99.90
27619;DHT22;15039;50.830;4.730;2023-03-03T10:11:22;2.60;99.90
27619;DHT22;15039;50.830;4.730;2023-03-03T10:16:41;2.50;99.90
27619;DHT22;15039;50.830;4.730;2023-03-03T10:19:35;2.30;99.90
27619;DHT22;15039;50.830;4.730;2023-03-03T10:39:25;2.90;99.90
27619;DHT22;15039;50.830;4.730;2023-03-03T10:52:41;3.30;99.90
27619;DHT22;15039;50.830;4.730;2023-03-03T11:00:26;3.50;99.90
27619;DHT22;15039;50.830;4.730;2023-03-03T11:06:00;3.70;99.90
27619;DHT22;15039;50.830;4.730;2023-03-03T11:08:32;3.70;99.90
27619;DHT22;15039;50.830;4.730;2023-03-03T11:11:29;3.60;99.90
27619;DHT22;15039;50.830;4.730;2023-03-03T11:16:49;3.30;99.90
27619;DHT22;15039;50.830;4.730;2023-03-03T11:33:50;3.70;99.90
27619;DHT22;15039;50.830;4.730;2023-03-03T11:36:35;3.80;99.90
27619;DHT22;15039;50.830;4.730;2023-03-03T11:39:09;3.80;99.90
27619;DHT22;15039;50.830;4.730;2023-03-03T11:41:41;3.70;99.90
27619;DHT22;15039;50.830;4.730;2023-03-03T11:44:45;3.60;99.90
27619;DHT22;15039;50.830;4.730;2023-03-03T11:50:01;4.00;99.90
27619;DHT22;15039;50.830;4.730;2023-03-03T11:52:59;4.10;99.90
27619;DHT22;15039;50.830;4.730;2023-03-03T11:55:32;4.20;99.90
27619;DHT22;15039;50.830;4.730;2023-03-03T11:58:19;4.40;99.90
27619;DHT22;15039;50.830;4.730;2023-03-03T12:01:02;4.50;99.90
27619;DHT22;15039;50.830;4.730;2023-03-03T12:03:38;4.70;99.90
27619;DHT22;15039;50.830;4.730;2023-03-03T12:19:18;5.40;99.90
27619;DHT22;15039;50.830;4.730;2023-03-03T12:33:58;5.70;99.90
27619;DHT22;15039;50.830;4.730;2023-03-03T12:38:43;5.70;99.90
27619;DHT22;15039;50.830;4.730;2023-03-03T12:41:27;5.80;99.90
27619;DHT22;15039;50.830;4.730;2023-03-03T12:44:11;6.00;99.90
27619;DHT22;15039;50.830;4.730;2023-03-03T12:49:52;6.40;99.90
27619;DHT22;15039;50.830;4.730;2023-03-03T13:01:12;6.20;99.90
27619;DHT22;15039;50.830;4.730;2023-03-03T13:14:31;6.30;99.90
27619;DHT22;15039;50.830;4.730;2023-03-03T13:23:03;6.40;99.90
27619;DHT22;15039;50.830;4.730;2023-03-03T13:25:50;6.30;99.90
27619;DHT22;15039;50.830;4.730;2023-03-03T13:28:24;6.30;99.90
27619;DHT22;15039;50.830;4.730;2023-03-03T13:31:00;6.20;99.90
27619;DHT22;15039;50.830;4.730;2023-03-03T13:33:33;6.20;99.90
27619;DHT22;15039;50.830;4.730;2023-03-03T13:36:08;6.20;99.90
27619;DHT22;15039;50.830;4.730;2023-03-03T13:38:59;6.30;99.90
27619;DHT22;15039;50.830;4.730;2023-03-03T13:41:46;6.10;99.90
27619;DHT22;15039;50.830;4.730;2023-03-03T13:44:24;5.90;99.90
27619;DHT22;15039;50.830;4.730;2023-03-03T13:47:15;5.80;99.90
27619;DHT22;15039;50.830;4.730;2023-03-03T13:49:53;5.80;99.90
27619;DHT22;15039;50.830;4.730;2023-03-03T13:52:25;6.00;99.90
27619;DHT22;15039;50.830;4.730;2023-03-03T14:00:13;6.00;99.90
27619;DHT22;15039;50.830;4.730;2023-03-03T14:05:37;5.80;99.90
27619;DHT22;15039;50.830;4.730;2023-03-03T14:14:24;5.80;99.90
27619;DHT22;15039;50.830;4.730;2023-03-03T14:16:57;6.10;99.90
27619;DHT22;15039;50.830;4.730;2023-03-03T14:19:39;6.30;99.90
27619;DHT22;15039;50.830;4.730;2023-03-03T14:25:08;6.50;99.90
27619;DHT22;15039;50.830;4.730;2023-03-03T14:27:40;6.40;99.90
27619;DHT22;15039;50.830;4.730;2023-03-03T14:33:21;6.50;99.90
27619;DHT22;15039;50.830;4.730;2023-03-03T14:38:46;6.40;99.90
27619;DHT22;15039;50.830;4.730;2023-03-03T14:43:38;6.60;99.90
27619;DHT22;15039;50.830;4.730;2023-03-03T14:48:51;6.50;99.90
27619;DHT22;15039;50.830;4.730;2023-03-03T14:51:46;6.70;99.90
27619;DHT22;15039;50.830;4.730;2023-03-03T14:54:28;6.80;99.90
27619;DHT22;15039;50.830;4.730;2023-03-03T14:59:54;7.00;99.90
27619;DHT22;15039;50.830;4.730;2023-03-03T15:04:46;7.20;99.90
27619;DHT22;15039;50.830;4.730;2023-03-03T15:07:34;7.40;99.90
27619;DHT22;15039;50.830;4.730;2023-03-03T15:10:01;7.40;99.90
27619;DHT22;15039;50.830;4.730;2023-03-03T15:12:35;7.10;99.90
27619;DHT22;15039;50.830;4.730;2023-03-03T15:36:14;6.90;99.90
27619;DHT22;15039;50.830;4.730;2023-03-03T15:53:32;7.10;99.90
27619;DHT22;15039;50.830;4.730;2023-03-03T16:02:14;6.90;99.90
27619;DHT22;15039;50.830;4.730;2023-03-03T16:08:01;7.10;99.90
27619;DHT22;15039;50.830;4.730;2023-03-03T16:10:37;7.40;99.90
27619;DHT22;15039;50.830;4.730;2023-03-03T16:19:00;7.50;99.90
27619;DHT22;15039;50.830;4.730;2023-03-03T16:32:49;7.30;99.90
27619;DHT22;15039;50.830;4.730;2023-03-03T16:35:24;7.30;99.90
27619;DHT22;15039;50.830;4.730;2023-03-03T16:43:41;7.30;99.90
27619;DHT22;15039;50.830;4.730;2023-03-03T16:46:49;7.30;99.90
27619;DHT22;15039;50.830;4.730;2023-03-03T16:49:15;7.10;99.90
27619;DHT22;15039;50.830;4.730;2023-03-03T16:54:33;6.40;99.90
27619;DHT22;15039;50.830;4.730;2023-03-03T16:57:20;6.50;99.90
27619;DHT22;15039;50.830;4.730;2023-03-03T16:59:59;6.50;99.90
27619;DHT22;15039;50.830;4.730;2023-03-03T17:03:21;6.40;99.90
27619;DHT22;15039;50.830;4.730;2023-03-03T17:05:54;6.60;99.90
27619;DHT22;15039;50.830;4.730;2023-03-03T17:16:34;6.70;99.90
27619;DHT22;15039;50.830;4.730;2023-03-03T17:22:35;6.50;99.90
27619;DHT22;15039;50.830;4.730;2023-03-03T17:27:32;6.40;99.90
27619;DHT22;15039;50.830;4.730;2023-03-03T17:30:10;6.20;99.90
27619;DHT22;15039;50.830;4.730;2023-03-03T17:35:36;5.90;99.90
27619;DHT22;15039;50.830;4.730;2023-03-03T17:38:14;5.90;99.90
27619;DHT22;15039;50.830;4.730;2023-03-03T17:43:40;6.10;99.90
27619;DHT22;15039;50.830;4.730;2023-03-03T17:46:19;5.90;99.90
27619;DHT22;15039;50.830;4.730;2023-03-03T17:49:21;5.80;99.90
27619;DHT22;15039;50.830;4.730;2023-03-03T18:08:42;5.90;99.90
27619;DHT22;15039;50.830;4.730;2023-03-03T18:15:02;6.10;99.90
27619;DHT22;15039;50.830;4.730;2023-03-03T18:25:54;6.30;99.90
27619;DHT22;15039;50.830;4.730;2023-03-03T18:28:36;6.40;99.90
27619;DHT22;15039;50.830;4.730;2023-03-03T18:38:54;6.40;99.90
27619;DHT22;15039;50.830;4.730;2023-03-03T18:41:27;6.50;99.90
27619;DHT22;15039;50.830;4.730;2023-03-03T18:43:55;6.80;99.90
27619;DHT22;15039;50.830;4.730;2023-03-03T18:48:56;6.80;99.90
27619;DHT22;15039;50.830;4.730;2023-03-03T19:10:46;6.50;99.90
27619;DHT22;15039;50.830;4.730;2023-03-03T19:21:30;6.40;99.90
27619;DHT22;15039;50.830;4.730;2023-03-03T19:48:17;6.50;99.90
27619;DHT22;15039;50.830;4.730;2023-03-03T19:50:55;6.40;99.90
27619;DHT22;15039;50.830;4.730;2023-03-03T19:53:42;6.20;99.90
27619;DHT22;15039;50.830;4.730;2023-03-03T20:08:00;6.40;99.90
27619;DHT22;15039;50.830;4.730;2023-03-03T20:10:42;6.20;99.90
27619;DHT22;15039;50.830;4.730;2023-03-03T20:16:17;6.30;99.90
27619;DHT22;15039;50.830;4.730;2023-03-03T20:33:47;6.70;99.90
27619;DHT22;15039;50.830;4.730;2023-03-03T20:39:33;6.40;99.90
27619;DHT22;15039;50.830;4.730;2023-03-03T20:42:14;6.40;99.90
27619;DHT22;15039;50.830;4.730;2023-03-03T20:44:59;6.30;99.90
27619;DHT22;15039;50.830;4.730;2023-03-03T20:47:49;6.40;99.90
27619;DHT22;15039;50.830;4.730;2023-03-03T20:50:31;6.50;99.90
27619;DHT22;15039;50.830;4.730;2023-03-03T20:53:36;6.10;99.90
27619;DHT22;15039;50.830;4.730;2023-03-03T20:57:16;6.20;99.90
27619;DHT22;15039;50.830;4.730;2023-03-03T21:04:26;6.00;99.90
27619;DHT22;15039;50.830;4.730;2023-03-03T21:06:53;5.80;99.90
27619;DHT22;15039;50.830;4.730;2023-03-03T21:11:55;5.90;99.90
27619;DHT22;15039;50.830;4.730;2023-03-03T21:14:29;6.00;99.90
27619;DHT22;15039;50.830;4.730;2023-03-03T21:16:58;6.10;99.90
27619;DHT22;15039;50.830;4.730;2023-03-03T21:19:31;6.20;99.90
27619;DHT22;15039;50.830;4.730;2023-03-03T21:21:58;6.50;99.90
27619;DHT22;15039;50.830;4.730;2023-03-03T21:24:54;6.60;99.90
27619;DHT22;15039;50.830;4.730;2023-03-03T21:30:06;6.50;99.90
27619;DHT22;15039;50.830;4.730;2023-03-03T21:32:34;6.40;99.90
27619;DHT22;15039;50.830;4.730;2023-03-03T21:35:19;6.50;99.90
27619;DHT22;15039;50.830;4.730;2023-03-03T21:40:21;6.70;99.90
27619;DHT22;15039;50.830;4.730;2023-03-03T21:42:51;6.70;99.90
27619;DHT22;15039;50.830;4.730;2023-03-03T21:45:17;6.50;99.90
27619;DHT22;15039;50.830;4.730;2023-03-03T21:47:45;6.30;99.90
27619;DHT22;15039;50.830;4.730;2023-03-03T21:50:12;6.20;99.90
27619;DHT22;15039;50.830;4.730;2023-03-03T21:52:38;6.10;99.90
27619;DHT22;15039;50.830;4.730;2023-03-03T21:55:04;6.30;99.90
27619;DHT22;15039;50.830;4.730;2023-03-03T21:57:30;6.30;99.90
27619;DHT22;15039;50.830;4.730;2023-03-03T21:59:55;6.30;99.90
27619;DHT22;15039;50.830;4.730;2023-03-03T22:02:21;6.20;99.90
27619;DHT22;15039;50.830;4.730;2023-03-03T22:04:47;6.20;99.90
27619;DHT22;15039;50.830;4.730;2023-03-03T22:07:12;6.10;99.90
27619;DHT22;15039;50.830;4.730;2023-03-03T22:09:38;5.90;99.90
27619;DHT22;15039;50.830;4.730;2023-03-03T22:12:05;5.90;99.90
27619;DHT22;15039;50.830;4.730;2023-03-03T22:14:31;5.80;99.90
27619;DHT22;15039;50.830;4.730;2023-03-03T22:16:57;5.90;99.90
27619;DHT22;15039;50.830;4.730;2023-03-03T22:19:23;6.20;99.90
27619;DHT22;15039;50.830;4.730;2023-03-03T22:21:49;6.30;99.90
27619;DHT22;15039;50.830;4.730;2023-03-03T22:24:16;6.40;99.90
27619;DHT22;15039;50.830;4.730;2023-03-03T22:26:42;6.50;99.90
27619;DHT22;15039;50.830;4.730;2023-03-03T22:29:08;6.50;99.90
27619;DHT22;15039;50.830;4.730;2023-03-03T22:31:34;6.00;99.90
27619;DHT22;15039;50.830;4.730;2023-03-03T22:34:00;6.10;99.90
27619;DHT22;15039;50.830;4.730;2023-03-03T22:36:25;6.20;99.90
27619;DHT22;15039;50.830;4.730;2023-03-03T22:38:51;6.30;99.90
27619;DHT22;15039;50.830;4.730;2023-03-03T22:41:17;6.20;99.90
27619;DHT22;15039;50.830;4.730;2023-03-03T22:43:43;6.30;99.90
27619;DHT22;15039;50.830;4.730;2023-03-03T22:46:09;6.20;99.90
27619;DHT22;15039;50.830;4.730;2023-03-03T22:48:35;6.30;99.90
27619;DHT22;15039;50.830;4.730;2023-03-03T22:51:01;6.40;99.90
27619;DHT22;15039;50.830;4.730;2023-03-03T22:53:27;6.20;99.90
27619;DHT22;15039;50.830;4.730;2023-03-03T22:55:53;5.90;99.90
27619;DHT22;15039;50.830;4.730;2023-03-03T22:58:19;5.80;99.90
27619;DHT22;15039;50.830;4.730;2023-03-03T23:00:47;5.90;99.90
27619;DHT22;15039;50.830;4.730;2023-03-03T23:03:13;5.90;99.90
27619;DHT22;15039;50.830;4.730;2023-03-03T23:05:39;6.10;99.90
27619;DHT22;15039;50.830;4.730;2023-03-03T23:08:08;6.40;99.90
27619;DHT22;15039;50.830;4.730;2023-03-03T23:10:34;6.40;99.90
27619;DHT22;15039;50.830;4.730;2023-03-03T23:13:00;6.20;99.90
27619;DHT22;15039;50.830;4.730;2023-03-03T23:15:25;6.40;99.90
27619;DHT22;15039;50.830;4.730;2023-03-03T23:17:51;6.40;99.90
27619;DHT22;15039;50.830;4.730;2023-03-03T23:20:21;6.50;99.90